Charter Quote
Worldwide +1-877-727-2538 Call
Select Language Lang
SAFETY RELIABILITY EXPERIENCE

Private Jet Charter Services - Changzhou (ZSCG)

Paramount Business Jets offers private jet charter flights and luxury airliner charters to and from Changzhou.

AIRPORT INFORMATION
ICAOZSCG
LOCATIONChangzhou, China
FACILITY TYPEAIRPORT

At Paramount Business Jets you can hire chartered private jets to and from Changzhou with as little as 4 hours of notice. All flights booked via Paramount Business Jets are operated by certified direct air carriers that meet and exceed the FAA part 135 and 121 protocol or a foreign equivalent safety authority. Furthermore, Paramount Business Jets subscribes to ARGUS for their third party safety checks of operators, aircraft, and crews prior each and every flight to and from Changzhou and worldwide.

  • Quote a trip using Changzhou or call us 24/7 - 365 days a year at +1-877-727-2538.
Questions? Call +1-877-727-2538

METAR Weather Data at Changzhou, ZSCG

STATIONZSCG
OBSERVEDTue Nov 13, 02:00 UTC
NOWTue Jul 16, 04:36 UTC
AGE5882:36 hr ago
WINDE at 7 mph
VISIBILITY16 miles
CLOUDSpartly cloudy
TEMP59°F (15°C)
DEWPT45°F (7°C)
HUMIDITY59%
BAROMETER1023 hPa (30.21 in Hg)
METARZSCG 130200Z 08003MPS 040V130 9999 FEW023 15/07 Q1023 NOSIG

Call us on +1-877-727-2538 (24 Hours) to Hire a Private Jet or Get a Quick Quote.

Find Airports Near any Location

Processing
...